Time;durP1;ratioP1;P1;durP2;ratioP2;P2;SDS_P1;SDS_P2;PMS_P1;PMS_P2;Temp;Humidity;BMP_temperature;BMP_pressure;BME280_temperature;BME280_humidity;BME280_pressure;Samples;Min_cycle;Max_cycle;Signal;HPM_P1;HPM_P2
2022/03/13 00:01:29;;;;;;;70.93;58.03;;;;;;;-1.92;43.89;99388.31;5015307;28;20106;-60
2022/03/13 00:03:55;;;;;;;81.57;61.97;;;;;;;-2.03;43.57;99391.16;5019011;28;20042;-60
2022/03/13 00:06:31;;;;;;;74.33;57.70;;;;;;;-2.11;43.53;99388.31;5014954;28;20029;-60
2022/03/13 00:08:58;;;;;;;72.57;57.20;;;;;;;-2.09;43.79;99380.88;5020262;28;20042;-59
2022/03/13 00:11:25;;;;;;;73.67;58.43;;;;;;;-2.07;44.27;99384.28;5017328;28;20075;-59
2022/03/13 00:13:51;;;;;;;87.77;65.13;;;;;;;-2.04;44.30;99381.94;5014888;28;20145;-59
2022/03/13 00:16:18;;;;;;;80.50;59.60;;;;;;;-2.05;43.80;99380.19;5013322;28;20127;-57
2022/03/13 00:18:47;;;;;;;76.80;59.30;;;;;;;-2.10;44.25;99371.59;5015228;28;20579;-59
2022/03/13 00:21:17;;;;;;;77.67;57.90;;;;;;;-2.10;44.62;99377.50;5014393;28;20042;-58
2022/03/13 00:23:45;;;;;;;82.07;61.13;;;;;;;-1.94;44.44;99372.31;5016522;28;20041;-59
2022/03/13 00:26:11;;;;;;;84.10;62.57;;;;;;;-1.96;44.25;99378.94;5016379;28;20044;-57
2022/03/13 00:28:37;;;;;;;77.37;59.87;;;;;;;-1.97;44.00;99377.22;5017680;28;20189;-58
2022/03/13 00:31:03;;;;;;;80.60;58.43;;;;;;;-2.01;44.35;99375.38;5037258;28;20055;-57
2022/03/13 00:33:29;;;;;;;71.43;56.90;;;;;;;-2.05;44.19;99371.03;5034809;28;20407;-58
2022/03/13 00:35:54;;;;;;;85.37;61.53;;;;;;;-2.12;43.89;99374.03;5034786;28;20041;-59
2022/03/13 00:38:25;;;;;;;74.77;57.47;;;;;;;-2.21;43.65;99370.31;5034840;28;20049;-59
2022/03/13 00:40:51;;;;;;;75.27;57.97;;;;;;;-2.19;45.00;99364.53;5035226;28;20038;-60
2022/03/13 00:43:19;;;;;;;73.23;55.90;;;;;;;-2.15;44.17;99366.38;5030330;28;20491;-58
2022/03/13 00:45:44;;;;;;;66.07;53.70;;;;;;;-2.21;44.52;99370.31;5032879;28;20036;-59
2022/03/13 00:48:10;;;;;;;69.03;55.17;;;;;;;-2.26;44.59;99362.56;5036745;28;20045;-58
2022/03/13 00:50:36;;;;;;;76.70;58.40;;;;;;;-2.24;44.42;99368.50;5036629;28;20050;-57
2022/03/13 00:53:01;;;;;;;64.73;52.60;;;;;;;-2.07;44.54;99366.72;5035987;28;20045;-59
2022/03/13 00:55:27;;;;;;;79.40;58.43;;;;;;;-2.16;45.05;99359.63;5033466;28;20046;-58
2022/03/13 00:57:52;;;;;;;80.57;59.77;;;;;;;-1.98;44.48;99355.41;5037797;28;20423;-59
2022/03/13 01:00:18;;;;;;;73.90;57.87;;;;;;;-1.87;44.39;99349.16;5034689;28;20079;-58
2022/03/13 01:02:43;;;;;;;76.63;56.87;;;;;;;-1.98;44.54;99341.97;5030512;28;20125;-57
2022/03/13 01:05:10;;;;;;;77.37;57.53;;;;;;;-1.98;44.38;99339.47;5030197;28;20562;-60
2022/03/13 01:07:39;;;;;;;83.40;57.90;;;;;;;-2.04;45.21;99339.22;5034551;28;20513;-60
2022/03/13 01:10:08;;;;;;;82.73;59.43;;;;;;;-2.07;44.50;99336.56;5032019;28;21050;-57
2022/03/13 01:12:34;;;;;;;73.57;57.57;;;;;;;-2.08;44.64;99332.34;5031515;28;20052;-59
2022/03/13 01:15:00;;;;;;;74.13;57.13;;;;;;;-2.14;44.45;99332.94;5034754;28;20045;-58
2022/03/13 01:17:25;;;;;;;74.60;57.63;;;;;;;-2.14;44.88;99324.56;5033095;28;20044;-59
2022/03/13 01:19:51;;;;;;;74.00;57.03;;;;;;;-2.22;44.94;99319.22;5022658;28;20380;-58
2022/03/13 01:22:16;;;;;;;81.17;62.80;;;;;;;-2.15;45.00;99330.38;5034322;28;20589;-58
2022/03/13 01:24:46;;;;;;;72.57;55.93;;;;;;;-2.26;45.05;99327.41;5035248;28;20075;-59
2022/03/13 01:27:14;;;;;;;81.13;61.37;;;;;;;-2.33;45.17;99322.91;5038006;28;20040;-59
2022/03/13 01:29:41;;;;;;;83.43;60.37;;;;;;;-2.29;45.35;99312.19;5037291;28;20112;-60
2022/03/13 01:32:10;;;;;;;74.53;58.30;;;;;;;-2.39;45.44;99313.47;5034215;28;20116;-58
2022/03/13 01:34:41;;;;;;;78.13;57.90;;;;;;;-2.39;45.55;99313.47;5033825;28;20041;-59
2022/03/13 01:37:26;;;;;;;94.10;64.20;;;;;;;-2.41;45.52;99306.66;5033122;28;20036;-58
2022/03/13 01:39:52;;;;;;;95.13;62.33;;;;;;;-2.38;45.38;99314.34;5031327;28;20037;-58
2022/03/13 01:42:17;;;;;;;88.10;61.00;;;;;;;-2.49;45.50;99305.47;5032480;28;20565;-56
2022/03/13 01:44:43;;;;;;;86.23;60.47;;;;;;;-2.51;45.71;99304.56;5042708;28;20634;-58
2022/03/13 01:47:09;;;;;;;90.53;62.93;;;;;;;-2.61;45.67;99307.47;5040055;28;20049;-57
2022/03/13 01:49:35;;;;;;;83.67;61.13;;;;;;;-2.67;46.12;99303.03;5033317;28;20134;-58
2022/03/13 01:52:02;;;;;;;85.97;58.20;;;;;;;-2.78;46.23;99295.03;5000691;28;20107;-56
2022/03/13 01:54:30;;;;;;;85.57;60.63;;;;;;;-2.62;46.19;99303.22;5029859;28;20036;-58
2022/03/13 01:56:56;;;;;;;92.87;61.50;;;;;;;-2.69;45.92;99293.72;5035478;28;20053;-58
2022/03/13 01:59:22;;;;;;;101.03;61.60;;;;;;;-2.71;45.90;99288.63;5031877;28;20127;-59
2022/03/13 02:01:48;;;;;;;89.03;57.90;;;;;;;-2.78;46.08;99300.06;5031870;28;20052;-56
2022/03/13 02:04:13;;;;;;;85.80;58.17;;;;;;;-2.94;45.90;99295.16;5034299;28;20122;-58
2022/03/13 02:06:39;;;;;;;90.00;58.90;;;;;;;-3.03;46.18;99301.41;5034631;28;20040;-57
2022/03/13 02:09:07;;;;;;;91.03;55.30;;;;;;;-3.14;46.74;99293.38;5027576;28;20056;-59
2022/03/13 02:11:38;;;;;;;90.90;57.53;;;;;;;-3.17;46.74;99299.91;5035548;28;20033;-59
2022/03/13 02:14:05;;;;;;;90.83;55.73;;;;;;;-3.25;46.50;99297.06;5035884;28;20043;-57
2022/03/13 02:16:30;;;;;;;92.93;57.53;;;;;;;-3.37;46.94;99297.38;5034403;28;20033;-58
2022/03/13 02:18:56;;;;;;;91.43;55.10;;;;;;;-3.42;47.30;99296.31;5032432;28;20558;-60
2022/03/13 02:21:27;;;;;;;81.47;54.13;;;;;;;-3.49;48.33;99304.34;5013905;28;20161;-59
2022/03/13 02:23:55;;;;;;;89.70;55.73;;;;;;;-3.42;47.97;99288.78;5034044;28;20048;-58
2022/03/13 02:26:21;;;;;;;88.37;55.43;;;;;;;-3.53;47.82;99284.06;5034317;28;20354;-57
2022/03/13 02:28:55;;;;;;;94.27;56.23;;;;;;;-3.67;48.42;99285.06;5033311;28;20061;-55
2022/03/13 02:31:29;;;;;;;94.30;57.40;;;;;;;-3.79;48.63;99282.84;5032235;28;20073;-58
2022/03/13 02:33:57;;;;;;;97.35;57.72;;;;;;;-3.87;49.57;99282.47;5034013;28;20467;-59
2022/03/13 02:36:40;;;;;;;82.03;52.87;;;;;;;-3.90;49.98;99283.94;5032361;28;20053;-57
2022/03/13 02:39:07;;;;;;;92.13;53.57;;;;;;;-3.83;50.37;99286.84;5034123;28;20073;-57
2022/03/13 02:41:33;;;;;;;97.03;64.67;;;;;;;-3.93;50.21;99282.19;5036795;28;20038;-58
2022/03/13 02:43:59;;;;;;;84.20;53.00;;;;;;;-4.01;50.78;99285.97;5037309;28;20045;-55
2022/03/13 02:46:42;;;;;;;92.67;54.73;;;;;;;-3.87;49.98;99285.00;5034514;28;20041;-58
2022/03/13 02:49:08;;;;;;;93.53;53.73;;;;;;;-3.84;50.41;99282.63;5037854;28;20041;-58
2022/03/13 02:51:34;;;;;;;100.50;57.03;;;;;;;-3.95;50.21;99282.91;5038526;28;20037;-59
2022/03/13 02:53:59;;;;;;;93.93;54.60;;;;;;;-4.00;50.63;99287.69;5033736;28;20779;-56
2022/03/13 02:56:24;;;;;;;97.73;55.37;;;;;;;-4.13;51.14;99277.84;5032036;28;20037;-59
2022/03/13 02:58:50;;;;;;;101.93;56.63;;;;;;;-4.21;52.74;99280.00;5032061;28;20478;-58
2022/03/13 03:01:16;;;;;;;95.53;56.93;;;;;;;-4.26;52.58;99278.03;5034940;28;20033;-59
2022/03/13 03:03:41;;;;;;;93.60;55.10;;;;;;;-4.32;52.88;99282.72;5033013;28;20053;-60
2022/03/13 03:06:07;;;;;;;94.67;61.17;;;;;;;-4.38;52.91;99292.44;5038517;28;20037;-57
2022/03/13 03:08:32;;;;;;;94.47;54.20;;;;;;;-4.42;54.14;99288.94;5040454;28;20060;-57
2022/03/13 03:10:58;;;;;;;92.90;55.73;;;;;;;-4.47;54.48;99286.97;5036326;28;20140;-57
2022/03/13 03:13:23;;;;;;;95.30;52.80;;;;;;;-4.50;54.47;99286.84;5033533;28;20171;-59
2022/03/13 03:15:48;;;;;;;102.90;55.67;;;;;;;-4.58;55.61;99286.44;5028961;28;20455;-58
2022/03/13 03:18:14;;;;;;;101.47;54.67;;;;;;;-4.58;55.53;99288.09;5032524;28;20080;-59
2022/03/13 03:20:40;;;;;;;98.40;53.97;;;;;;;-4.64;56.70;99281.13;5034419;28;20099;-59
2022/03/13 03:23:06;;;;;;;102.53;54.37;;;;;;;-4.70;56.64;99278.31;5032661;28;20107;-56
2022/03/13 03:25:31;;;;;;;98.83;54.17;;;;;;;-4.75;56.82;99279.69;5028957;28;20550;-56
2022/03/13 03:27:58;;;;;;;99.13;54.03;;;;;;;-4.81;58.28;99287.78;5031312;28;20060;-58
2022/03/13 03:30:26;;;;;;;106.73;58.10;;;;;;;-4.73;58.88;99284.03;5031788;28;20060;-59
2022/03/13 03:32:53;;;;;;;102.27;55.13;;;;;;;-4.74;59.33;99283.94;5030663;28;20436;-59
2022/03/13 03:35:20;;;;;;;106.20;57.10;;;;;;;-4.81;59.48;99279.41;5030588;28;20132;-55
2022/03/13 03:37:47;;;;;;;103.73;54.17;;;;;;;-4.79;59.17;99288.69;5032101;28;20045;-58
2022/03/13 03:40:13;;;;;;;104.60;54.70;;;;;;;-4.78;59.46;99285.41;5037611;28;20025;-57
2022/03/13 03:42:40;;;;;;;105.33;54.40;;;;;;;-4.80;59.53;99286.13;5029283;28;20064;-57
2022/03/13 03:45:06;;;;;;;105.53;55.67;;;;;;;-4.84;59.44;99289.25;5027649;28;20042;-54
2022/03/13 03:47:32;;;;;;;105.27;55.73;;;;;;;-4.90;59.28;99287.28;5034198;28;20620;-59
2022/03/13 03:49:57;;;;;;;105.80;54.43;;;;;;;-4.96;60.03;99286.97;5033769;28;20136;-59
2022/03/13 03:52:23;;;;;;;96.27;50.93;;;;;;;-5.00;61.12;99282.59;5031505;28;20037;-59
2022/03/13 03:54:48;;;;;;;103.87;53.07;;;;;;;-5.07;61.33;99285.56;5030347;28;20030;-60
2022/03/13 03:57:14;;;;;;;95.63;52.33;;;;;;;-5.09;61.64;99292.97;5035597;28;20388;-56
2022/03/13 03:59:39;;;;;;;95.03;51.27;;;;;;;-5.05;61.32;99288.16;5032560;28;20045;-58
2022/03/13 04:02:04;;;;;;;103.97;54.60;;;;;;;-5.06;60.18;99287.28;5029347;28;20037;-57
2022/03/13 04:04:30;;;;;;;104.63;53.20;;;;;;;-5.09;59.45;99292.09;5033766;28;20045;-57
2022/03/13 04:06:55;;;;;;;94.57;50.73;;;;;;;-5.01;60.94;99290.03;5035936;28;20045;-59
2022/03/13 04:09:21;;;;;;;100.83;51.80;;;;;;;-4.96;60.49;99291.97;5035098;28;20079;-57
2022/03/13 04:11:47;;;;;;;106.20;54.03;;;;;;;-5.00;60.48;99291.72;5038691;28;20056;-57
2022/03/13 04:14:14;;;;;;;100.17;53.03;;;;;;;-5.12;60.52;99292.81;5043788;28;20045;-56
2022/03/13 04:16:41;;;;;;;93.33;51.80;;;;;;;-5.13;60.56;99296.09;5038370;28;20051;-55
2022/03/13 04:19:08;;;;;;;99.03;52.90;;;;;;;-5.18;62.46;99294.13;5039785;28;20857;-55
2022/03/13 04:21:34;;;;;;;97.30;53.80;;;;;;;-5.15;62.89;99295.16;5033743;28;20743;-57
2022/03/13 04:24:00;;;;;;;99.37;52.07;;;;;;;-5.18;62.25;99294.13;5033745;28;20287;-58
2022/03/13 04:26:25;;;;;;;95.90;52.27;;;;;;;-5.18;62.28;99299.13;5038011;28;20338;-55
2022/03/13 04:28:51;;;;;;;94.37;50.73;;;;;;;-5.24;63.39;99302.16;5033980;28;20051;-57
2022/03/13 04:31:18;;;;;;;96.70;52.43;;;;;;;-5.18;63.14;99296.63;5033817;28;20567;-56
2022/03/13 04:33:44;;;;;;;104.10;65.47;;;;;;;-5.28;63.99;99289.41;5041571;28;20133;-57
2022/03/13 04:36:13;;;;;;;97.53;50.80;;;;;;;-5.28;63.92;99289.41;5044428;28;20141;-59
2022/03/13 04:38:39;;;;;;;103.03;53.93;;;;;;;-5.28;63.88;99292.78;5035096;28;20916;-58
2022/03/13 04:41:04;;;;;;;98.50;51.60;;;;;;;-5.35;64.16;99295.75;5032978;28;20049;-55
2022/03/13 04:43:30;;;;;;;96.30;52.43;;;;;;;-5.36;65.09;99290.66;5038379;28;20299;-54
2022/03/13 04:45:55;;;;;;;88.63;50.20;;;;;;;-5.33;65.16;99291.66;5044200;28;20120;-59
2022/03/13 04:48:21;;;;;;;98.20;52.33;;;;;;;-5.36;64.45;99288.16;5035413;28;20041;-58
2022/03/13 04:50:46;;;;;;;92.77;51.17;;;;;;;-5.32;64.20;99298.41;5035578;28;20037;-55
2022/03/13 04:53:13;;;;;;;94.53;51.80;;;;;;;-5.24;64.60;99294.66;5038963;28;20057;-57
2022/03/13 04:55:38;;;;;;;98.60;51.77;;;;;;;-5.19;64.32;99303.28;5037160;28;20727;-58
2022/03/13 04:58:04;;;;;;;99.23;51.47;;;;;;;-5.21;63.55;99303.94;5035113;28;20087;-58
2022/03/13 05:00:30;;;;;;;98.47;51.40;;;;;;;-5.20;64.87;99303.19;5033659;28;20060;-56
2022/03/13 05:02:55;;;;;;;93.20;51.60;;;;;;;-5.19;64.03;99307.41;5033409;28;20037;-59
2022/03/13 05:05:22;;;;;;;93.30;51.37;;;;;;;-5.18;63.82;99311.63;5035857;28;20080;-54
2022/03/13 05:07:49;;;;;;;92.03;50.80;;;;;;;-5.22;63.53;99307.25;5030428;28;20139;-59
2022/03/13 05:10:15;;;;;;;95.30;51.70;;;;;;;-5.24;64.05;99301.28;5031689;28;20704;-56
2022/03/13 05:12:43;;;;;;;95.23;52.03;;;;;;;-5.20;63.51;99299.03;5037639;28;20300;-56
2022/03/13 05:15:09;;;;;;;98.03;51.30;;;;;;;-5.21;62.99;99299.81;5023470;28;20272;-57
2022/03/13 05:17:34;;;;;;;96.67;51.77;;;;;;;-5.14;62.83;99313.50;5032631;28;20134;-57
2022/03/13 05:19:59;;;;;;;87.23;48.73;;;;;;;-5.07;63.10;99313.06;5037435;28;20036;-55
2022/03/13 05:22:25;;;;;;;91.03;50.67;;;;;;;-5.03;63.26;99317.44;5039243;28;20189;-58
2022/03/13 05:24:50;;;;;;;98.93;52.60;;;;;;;-4.92;62.34;99311.34;5042741;28;20534;-57
2022/03/13 05:27:15;;;;;;;92.83;51.97;;;;;;;-4.89;62.11;99309.03;5033526;28;20149;-58
2022/03/13 05:29:41;;;;;;;86.60;49.30;;;;;;;-4.81;61.82;99314.41;5031488;28;20605;-60
2022/03/13 05:32:07;;;;;;;92.80;51.60;;;;;;;-4.70;61.24;99314.19;5034427;28;20045;-58
2022/03/13 05:34:32;;;;;;;86.60;50.50;;;;;;;-4.63;61.69;99320.38;5034100;28;20418;-57
2022/03/13 05:36:58;;;;;;;89.03;49.87;;;;;;;-4.57;61.76;99328.19;5035641;28;20153;-56
2022/03/13 05:39:23;;;;;;;90.77;52.03;;;;;;;-4.48;60.94;99332.78;5035148;28;20049;-57
2022/03/13 05:41:48;;;;;;;89.53;51.73;;;;;;;-4.40;61.13;99329.03;5033004;28;20046;-57
2022/03/13 05:44:14;;;;;;;93.53;52.93;;;;;;;-4.31;60.56;99329.50;5034119;28;20044;-56
2022/03/13 05:46:40;;;;;;;93.13;53.47;;;;;;;-4.24;59.92;99326.50;5035901;28;20033;-57
2022/03/13 05:49:08;;;;;;;99.40;56.10;;;;;;;-4.17;59.94;99323.56;5034920;28;20072;-58
2022/03/13 05:51:37;;;;;;;108.93;55.33;;;;;;;-4.07;59.88;99325.69;5037642;28;20045;-58
2022/03/13 05:54:06;;;;;;;110.03;58.00;;;;;;;-4.04;60.31;99317.50;5038664;28;20497;-57
2022/03/13 05:56:32;;;;;;;103.07;58.30;;;;;;;-3.92;59.06;99323.97;5037335;28;20103;-57
2022/03/13 05:58:57;;;;;;;106.23;58.93;;;;;;;-3.82;58.11;99327.78;5033644;28;20041;-55
2022/03/13 06:01:23;;;;;;;102.87;59.37;;;;;;;-3.74;58.43;99327.38;5036521;28;20083;-57
2022/03/13 06:03:48;;;;;;;103.27;58.13;;;;;;;-3.63;57.87;99325.38;5033726;28;20052;-54
2022/03/13 06:06:14;;;;;;;98.27;57.53;;;;;;;-3.52;57.23;99331.72;5032452;28;20087;-58
2022/03/13 06:08:40;;;;;;;90.60;54.47;;;;;;;-3.40;56.99;99333.97;5037480;28;20041;-55
2022/03/13 06:11:05;;;;;;;94.97;56.53;;;;;;;-3.27;56.18;99338.78;5035667;28;20049;-55
2022/03/13 06:13:31;;;;;;;93.87;56.27;;;;;;;-3.20;56.32;99334.88;5035596;28;20037;-57
2022/03/13 06:15:59;;;;;;;91.77;57.13;;;;;;;-3.08;55.92;99341.31;5030489;28;20133;-57
2022/03/13 06:18:27;;;;;;;98.90;58.30;;;;;;;-2.97;54.58;99330.13;5033870;28;20860;-57
2022/03/13 06:20:52;;;;;;;85.97;53.43;;;;;;;-2.79;54.04;99330.94;5036267;28;20037;-57
2022/03/13 06:23:18;;;;;;;83.73;56.17;;;;;;;-2.67;54.28;99343.19;5029919;28;20037;-57
2022/03/13 06:25:43;;;;;;;79.17;54.60;;;;;;;-2.55;54.31;99341.22;5033533;28;20042;-56
2022/03/13 06:28:12;;;;;;;95.43;62.27;;;;;;;-2.42;52.53;99335.09;5032238;28;20049;-58
2022/03/13 06:30:38;;;;;;;90.00;58.57;;;;;;;-2.37;52.79;99334.47;5015318;28;20134;-58
2022/03/13 06:33:03;;;;;;;87.23;59.93;;;;;;;-2.24;52.59;99340.88;5014139;28;20233;-59
2022/03/13 06:35:29;;;;;;;86.83;58.83;;;;;;;-2.20;51.96;99330.16;5011991;28;20037;-56
2022/03/13 06:37:55;;;;;;;72.47;55.53;;;;;;;-1.98;51.37;99337.81;5013302;28;20048;-60
2022/03/13 06:40:23;;;;;;;89.97;64.03;;;;;;;-1.81;51.43;99335.13;5014903;28;20038;-57
2022/03/13 06:42:50;;;;;;;86.43;65.23;;;;;;;-1.72;50.63;99338.03;5011967;28;20037;-57
2022/03/13 06:45:15;;;;;;;84.63;63.53;;;;;;;-1.65;50.15;99337.47;5012061;28;20091;-59
2022/03/13 06:47:46;;;;;;;86.00;61.67;;;;;;;-1.51;50.18;99339.75;5013474;28;20551;-57
2022/03/13 06:50:16;;;;;;;87.13;66.93;;;;;;;-1.45;49.86;99336.63;5013509;28;20092;-58
2022/03/13 06:52:42;;;;;;;73.90;57.77;;;;;;;-1.28;49.34;99337.28;5012225;28;20048;-56
2022/03/13 06:55:08;;;;;;;81.10;62.40;;;;;;;-1.06;49.24;99337.31;5012881;28;20049;-60
2022/03/13 06:57:33;;;;;;;72.53;59.57;;;;;;;-0.92;48.80;99336.16;5014616;28;20046;-59
2022/03/13 06:59:59;;;;;;;72.27;59.50;;;;;;;-0.72;48.60;99331.88;5013527;28;20041;-60
2022/03/13 07:02:25;;;;;;;71.17;56.13;;;;;;;-0.51;48.15;99333.47;5012652;28;20045;-59
2022/03/13 07:04:50;;;;;;;72.67;59.60;;;;;;;-0.27;47.46;99332.66;5015206;28;20107;-57
2022/03/13 07:07:16;;;;;;;64.57;57.80;;;;;;;-0.06;47.56;99335.91;5022123;28;20040;-58
2022/03/13 07:09:41;;;;;;;70.37;62.87;;;;;;;0.17;46.26;99334.16;5021716;28;20065;-56
2022/03/13 07:12:11;;;;;;;69.80;62.13;;;;;;;0.42;45.78;99329.94;5012534;28;20128;-60
2022/03/13 07:14:46;;;;;;;71.30;63.70;;;;;;;0.66;44.40;99326.50;5014787;28;20104;-59
2022/03/13 07:17:12;;;;;;;74.00;65.90;;;;;;;0.91;43.95;99329.81;5018055;28;20037;-54
2022/03/13 07:19:39;;;;;;;68.80;62.60;;;;;;;1.13;42.73;99327.94;5012502;28;20050;-58
2022/03/13 07:22:05;;;;;;;68.73;62.37;;;;;;;1.28;41.81;99325.84;5011327;28;20038;-58
2022/03/13 07:24:30;;;;;;;66.27;60.40;;;;;;;1.47;41.55;99318.00;5015602;28;20518;-60
2022/03/13 07:26:55;;;;;;;72.13;65.67;;;;;;;1.71;41.02;99321.19;5016675;28;20045;-53
2022/03/13 07:29:21;;;;;;;68.73;62.73;;;;;;;1.81;41.34;99313.03;5025041;28;20144;-57
2022/03/13 07:31:46;;;;;;;64.87;59.07;;;;;;;1.93;40.52;99324.28;5029357;28;20212;-58
2022/03/13 07:34:12;;;;;;;73.10;67.20;;;;;;;2.15;40.42;99313.91;5031892;28;20478;-59
2022/03/13 07:36:39;;;;;;;59.47;54.67;;;;;;;2.25;40.12;99316.69;5031304;28;20860;-58
2022/03/13 07:39:05;;;;;;;66.30;61.10;;;;;;;2.34;39.78;99321.13;5042932;28;20037;-58
2022/03/13 07:41:31;;;;;;;65.20;60.10;;;;;;;2.43;39.77;99315.41;5041151;28;20033;-58
2022/03/13 07:43:56;;;;;;;76.93;70.57;;;;;;;2.60;39.58;99302.34;5039810;28;20037;-57
2022/03/13 07:46:22;;;;;;;68.50;63.17;;;;;;;2.66;39.70;99302.50;5038041;28;20056;-58
2022/03/13 07:48:47;;;;;;;62.60;57.40;;;;;;;2.88;39.07;99308.06;5040988;28;20033;-58
2022/03/13 07:51:13;;;;;;;67.27;62.00;;;;;;;2.97;38.63;99303.19;5039260;28;20472;-57
2022/03/13 07:53:38;;;;;;;63.50;58.80;;;;;;;3.07;38.17;99311.00;5034007;28;20266;-57
2022/03/13 07:56:04;;;;;;;65.60;60.67;;;;;;;3.20;38.39;99312.13;5035500;28;20036;-58
2022/03/13 07:58:30;;;;;;;73.53;68.13;;;;;;;3.38;38.18;99312.53;5038668;28;20045;-59
2022/03/13 08:00:57;;;;;;;76.60;71.10;;;;;;;3.47;38.16;99305.09;5038830;28;20471;-58
2022/03/13 08:03:24;;;;;;;65.23;60.77;;;;;;;3.54;38.88;99309.47;5037474;28;20164;-58
2022/03/13 08:05:53;;;;;;;60.03;56.03;;;;;;;3.62;38.03;99307.06;5035590;28;20087;-58
2022/03/13 08:08:18;;;;;;;61.97;57.53;;;;;;;3.85;37.19;99294.84;5042310;28;20033;-57
2022/03/13 08:10:44;;;;;;;56.73;52.70;;;;;;;3.91;37.21;99298.31;5040375;28;20590;-57
2022/03/13 08:13:09;;;;;;;64.57;60.17;;;;;;;3.97;36.59;99306.06;5040038;28;20037;-57
2022/03/13 08:15:34;;;;;;;69.40;64.73;;;;;;;3.93;36.84;99294.16;5037569;28;20570;-57
2022/03/13 08:18:00;;;;;;;56.90;53.27;;;;;;;3.98;36.85;99294.22;5044694;28;20044;-55
2022/03/13 08:20:26;;;;;;;71.03;66.20;;;;;;;4.09;37.04;99305.41;5046924;28;20045;-58
2022/03/13 08:22:51;;;;;;;64.60;60.37;;;;;;;4.33;36.15;99300.75;5041209;28;20476;-59
2022/03/13 08:25:19;;;;;;;68.23;63.63;;;;;;;4.37;35.92;99297.41;5043753;28;20068;-56
2022/03/13 08:27:44;;;;;;;60.50;56.67;;;;;;;4.50;36.05;99293.38;5039079;28;20553;-57
2022/03/13 08:30:12;;;;;;;53.07;49.57;;;;;;;4.62;36.15;99292.75;5034723;28;20057;-57
2022/03/13 08:32:39;;;;;;;52.67;49.13;;;;;;;4.70;35.43;99299.66;5033041;28;20052;-58
2022/03/13 08:35:08;;;;;;;63.10;59.00;;;;;;;4.86;35.53;99288.88;5032816;28;20344;-57
2022/03/13 08:37:34;;;;;;;64.60;60.53;;;;;;;4.90;35.34;99287.22;5033050;28;20132;-58
2022/03/13 08:40:00;;;;;;;57.27;53.47;;;;;;;5.04;35.26;99290.81;5032128;28;20447;-56
2022/03/13 08:42:26;;;;;;;61.40;57.50;;;;;;;5.09;35.27;99286.66;5029637;28;20036;-55
2022/03/13 08:44:52;;;;;;;43.33;40.53;;;;;;;5.20;34.91;99282.56;5034811;28;20040;-58
2022/03/13 08:47:17;;;;;;;55.17;51.80;;;;;;;5.28;35.18;99278.44;5023186;28;20030;-58
2022/03/13 08:49:43;;;;;;;61.47;57.90;;;;;;;5.41;34.74;99289.59;5029882;28;20037;-56
2022/03/13 08:52:08;;;;;;;53.73;50.53;;;;;;;5.52;34.81;99282.94;5030463;28;20095;-57
2022/03/13 08:54:34;;;;;;;40.13;37.57;;;;;;;5.67;33.98;99269.56;5033256;28;20124;-59
2022/03/13 08:57:01;;;;;;;51.43;48.27;;;;;;;5.79;34.04;99267.13;5041326;28;20032;-59
2022/03/13 08:59:26;;;;;;;48.87;45.93;;;;;;;5.98;33.52;99271.63;5024006;28;20262;-59
2022/03/13 09:01:52;;;;;;;51.27;47.97;;;;;;;6.08;33.56;99268.28;5037450;28;20041;-58
2022/03/13 09:04:18;;;;;;;45.90;43.17;;;;;;;6.29;33.11;99271.03;5040183;28;20071;-58
2022/03/13 09:06:43;;;;;;;46.47;44.00;;;;;;;6.51;31.87;99261.00;5042272;28;20030;-56
2022/03/13 09:09:10;;;;;;;54.33;51.33;;;;;;;6.69;31.59;99268.78;5036540;28;20037;-58
2022/03/13 09:11:36;;;;;;;55.13;51.73;;;;;;;6.98;31.00;99262.16;5038209;28;20644;-56
2022/03/13 09:14:02;;;;;;;48.37;45.40;;;;;;;7.05;29.87;99263.03;5041969;28;20044;-57
2022/03/13 09:16:28;;;;;;;48.63;46.10;;;;;;;7.21;30.26;99263.13;5029197;28;20687;-57
2022/03/13 09:18:54;;;;;;;45.03;42.63;;;;;;;7.34;29.45;99258.94;5034136;28;20373;-57
2022/03/13 09:21:19;;;;;;;36.73;34.37;;;;;;;7.49;30.04;99259.00;5037555;28;20087;-58
2022/03/13 09:23:45;;;;;;;49.47;46.73;;;;;;;7.60;29.71;99262.41;5039090;28;20040;-57
2022/03/13 09:26:10;;;;;;;39.67;37.30;;;;;;;7.64;29.14;99247.97;5038637;28;20063;-58
2022/03/13 09:28:35;;;;;;;31.03;29.03;;;;;;;7.81;29.64;99259.06;5035770;28;20033;-57
2022/03/13 09:31:01;;;;;;;40.13;37.93;;;;;;;7.89;28.60;99247.19;5036253;28;20498;-58
2022/03/13 09:33:27;;;;;;;38.07;36.03;;;;;;;7.97;28.77;99258.25;5042519;28;20037;-57
2022/03/13 09:35:53;;;;;;;47.67;45.03;;;;;;;8.05;28.45;99259.13;5036134;28;20072;-57
2022/03/13 09:38:20;;;;;;;42.57;40.27;;;;;;;8.14;28.33;99260.84;5035700;28;20037;-56
2022/03/13 09:40:45;;;;;;;37.57;35.50;;;;;;;8.08;28.66;99258.25;5036031;28;20040;-58
2022/03/13 09:43:11;;;;;;;44.53;41.93;;;;;;;8.22;28.30;99254.88;5041924;28;20037;-59
2022/03/13 09:45:36;;;;;;;35.13;33.23;;;;;;;8.27;27.89;99254.88;5034763;28;20049;-58
2022/03/13 09:48:03;;;;;;;28.13;26.47;;;;;;;8.35;27.65;99260.88;5033412;28;20041;-58
2022/03/13 09:50:29;;;;;;;41.20;39.00;;;;;;;8.28;27.62;99259.13;5034589;28;20052;-59
2022/03/13 09:52:55;;;;;;;37.13;34.93;;;;;;;8.21;27.09;99260.84;5035540;28;20040;-54
2022/03/13 09:55:20;;;;;;;46.13;43.80;;;;;;;8.24;27.80;99245.50;5038471;28;20052;-56
2022/03/13 09:57:48;;;;;;;35.53;33.27;;;;;;;8.47;27.20;99263.41;5029218;28;20092;-57
2022/03/13 10:00:16;;;;;;;34.17;32.37;;;;;;;8.58;29.74;99260.84;5030818;28;20049;-57
2022/03/13 10:02:42;;;;;;;43.03;40.73;;;;;;;8.93;30.63;99259.09;5036019;28;20056;-55
2022/03/13 10:05:10;;;;;;;34.67;33.00;;;;;;;9.18;30.37;99264.97;5031940;28;20041;-57
2022/03/13 10:08:05;;;;;;;34.03;31.90;;;;;;;9.53;29.95;99255.47;5030267;28;20049;-57
2022/03/13 10:10:39;;;;;;;44.40;41.97;;;;;;;9.62;29.92;99252.88;5026236;28;20119;-53
2022/03/13 10:13:05;;;;;;;39.53;37.17;;;;;;;9.86;30.31;99246.75;5037269;28;20041;-56
2022/03/13 10:15:50;;;;;;;38.43;36.30;;;;;;;9.54;26.72;99246.94;5032831;28;20265;-56
2022/03/13 10:18:18;;;;;;;41.43;39.33;;;;;;;9.52;26.83;99240.97;5031095;28;20171;-54
2022/03/13 10:20:45;;;;;;;33.90;31.77;;;;;;;9.30;26.20;99248.72;5033695;28;20044;-56
2022/03/13 10:23:16;;;;;;;37.63;35.53;;;;;;;9.34;26.34;99235.06;5033220;28;20048;-58
2022/03/13 10:25:43;;;;;;;36.50;34.40;;;;;;;9.42;26.59;99234.16;5033526;28;20069;-55
2022/03/13 10:28:31;;;;;;;46.93;44.37;;;;;;;9.42;27.23;99241.03;5035093;28;20048;-53
2022/03/13 10:30:59;;;;;;;37.17;34.90;;;;;;;9.55;27.38;99240.94;5034331;28;20060;-53
2022/03/13 10:33:28;;;;;;;40.23;37.77;;;;;;;9.50;27.55;99237.56;5034133;28;20084;-56
2022/03/13 10:36:17;;;;;;;35.07;33.13;;;;;;;9.49;27.16;99235.88;5034823;28;20045;-55
2022/03/13 10:38:44;;;;;;;31.13;29.37;;;;;;;9.64;27.18;99230.66;5037350;28;20091;-53
2022/03/13 10:41:12;;;;;;;32.73;30.57;;;;;;;9.62;27.45;99232.38;5034095;28;20044;-57
2022/03/13 10:43:55;;;;;;;31.17;29.30;;;;;;;9.53;26.96;99236.69;5035627;28;20041;-54
2022/03/13 10:46:24;;;;;;;40.10;37.57;;;;;;;9.46;27.06;99232.47;5035502;28;20127;-54
2022/03/13 10:48:49;;;;;;;31.80;30.13;;;;;;;9.46;26.56;99225.63;5034493;28;20042;-57
2022/03/13 10:51:17;;;;;;;36.53;34.37;;;;;;;9.49;26.99;99229.88;5032281;28;20045;-55
2022/03/13 10:53:42;;;;;;;27.90;25.90;;;;;;;9.48;27.48;99230.75;5037374;28;20807;-55
2022/03/13 10:56:10;;;;;;;40.80;38.67;;;;;;;9.57;27.02;99229.00;5038301;28;20037;-57
2022/03/13 10:58:39;;;;;;;40.57;37.90;;;;;;;9.62;27.93;99234.09;5035600;28;20041;-54
2022/03/13 11:01:10;;;;;;;31.07;29.13;;;;;;;9.64;28.06;99217.84;5031644;28;20075;-56
2022/03/13 11:03:46;;;;;;;34.63;32.37;;;;;;;9.80;27.36;99225.47;5038523;28;20124;-54
2022/03/13 11:06:12;;;;;;;34.13;32.17;;;;;;;9.77;26.18;99213.50;5034156;28;20111;-56
2022/03/13 11:08:37;;;;;;;42.07;39.77;;;;;;;9.79;26.24;99221.19;5032810;28;20045;-56
2022/03/13 11:11:03;;;;;;;36.13;34.07;;;;;;;9.74;27.30;99222.91;5032333;28;20124;-57
2022/03/13 11:13:31;;;;;;;44.67;42.30;;;;;;;9.78;27.95;99212.66;5037569;28;20038;-55
2022/03/13 11:15:57;;;;;;;28.57;26.37;;;;;;;9.76;27.05;99218.66;5040832;28;20041;-58
2022/03/13 11:18:31;;;;;;;32.80;30.83;;;;;;;9.86;27.47;99213.44;5034425;28;20044;-57